FDK weather

Frederick Municipal Airport
Frederick, Maryland, United States

Public forecast

Using degrees Fahrenheit for public forecast. Weather courtesy of forecast.io.

METAR (pilot weather report)

Retrieved 2019/04/22 04:30 UTC (0 seconds ago):

KFDK 220430Z AUTO 00000KT 10SM SCT075 BKN090 13/08 A3015 RMK AO2

TAF (pilot weather forecast)

Forecast is more than 12 hours old.

Closest forecast is Eastern WV Regional Airport/Shepherd Field, 28.3 nm (52.5 km) W. Retrieved 2019/04/21 00:30 UTC (1 day ago):

TAF KMRB 212327Z 2200/2224 32008KT P6SM VCSH BKN050 FM220600 VRB04KT P6SM SCT090 FM221400 33008G16KT P6SM SCT050 FM222300 33005KT P6SM SCT200